sensor_id;sensor_type;location;lat;lon;timestamp;P1;durP1;ratioP1;P2;durP2;ratioP2
15905;SDS011;8051;50.820;4.884;2023-05-16T00:01:32;25.60;;;17.93;;
15905;SDS011;8051;50.820;4.884;2023-05-16T00:03:59;23.70;;;17.50;;
15905;SDS011;8051;50.820;4.884;2023-05-16T00:06:29;25.80;;;18.63;;
15905;SDS011;8051;50.820;4.884;2023-05-16T00:08:58;19.03;;;16.83;;
15905;SDS011;8051;50.820;4.884;2023-05-16T00:11:25;30.57;;;19.07;;
15905;SDS011;8051;50.820;4.884;2023-05-16T00:13:53;20.80;;;17.33;;
15905;SDS011;8051;50.820;4.884;2023-05-16T00:16:20;24.77;;;17.67;;
15905;SDS011;8051;50.820;4.884;2023-05-16T00:18:50;20.07;;;17.90;;
15905;SDS011;8051;50.820;4.884;2023-05-16T00:21:18;19.43;;;17.53;;
15905;SDS011;8051;50.820;4.884;2023-05-16T00:23:47;22.03;;;19.53;;
15905;SDS011;8051;50.820;4.884;2023-05-16T00:26:15;20.43;;;18.37;;
15905;SDS011;8051;50.820;4.884;2023-05-16T00:28:43;21.53;;;17.93;;
15905;SDS011;8051;50.820;4.884;2023-05-16T00:31:10;23.30;;;19.33;;
15905;SDS011;8051;50.820;4.884;2023-05-16T00:33:38;21.80;;;17.77;;
15905;SDS011;8051;50.820;4.884;2023-05-16T00:36:06;25.23;;;17.43;;
15905;SDS011;8051;50.820;4.884;2023-05-16T00:38:33;28.63;;;17.83;;
15905;SDS011;8051;50.820;4.884;2023-05-16T00:41:03;19.67;;;16.97;;
15905;SDS011;8051;50.820;4.884;2023-05-16T00:43:30;19.83;;;17.13;;
15905;SDS011;8051;50.820;4.884;2023-05-16T00:45:58;21.27;;;17.20;;
15905;SDS011;8051;50.820;4.884;2023-05-16T00:48:26;21.13;;;17.50;;
15905;SDS011;8051;50.820;4.884;2023-05-16T00:50:53;27.67;;;18.17;;
15905;SDS011;8051;50.820;4.884;2023-05-16T00:53:22;26.00;;;17.83;;
15905;SDS011;8051;50.820;4.884;2023-05-16T00:55:49;28.57;;;17.67;;
15905;SDS011;8051;50.820;4.884;2023-05-16T00:58:19;24.00;;;17.13;;
15905;SDS011;8051;50.820;4.884;2023-05-16T01:00:48;26.27;;;18.00;;
15905;SDS011;8051;50.820;4.884;2023-05-16T01:03:16;25.57;;;16.43;;
15905;SDS011;8051;50.820;4.884;2023-05-16T01:05:43;23.50;;;17.37;;
15905;SDS011;8051;50.820;4.884;2023-05-16T01:08:12;19.70;;;17.63;;
15905;SDS011;8051;50.820;4.884;2023-05-16T01:10:43;24.57;;;16.73;;
15905;SDS011;8051;50.820;4.884;2023-05-16T01:13:17;25.00;;;17.03;;
15905;SDS011;8051;50.820;4.884;2023-05-16T01:15:54;22.90;;;17.50;;
15905;SDS011;8051;50.820;4.884;2023-05-16T01:18:28;27.43;;;17.10;;
15905;SDS011;8051;50.820;4.884;2023-05-16T01:21:03;21.23;;;17.10;;
15905;SDS011;8051;50.820;4.884;2023-05-16T01:23:39;22.77;;;16.77;;
15905;SDS011;8051;50.820;4.884;2023-05-16T01:26:17;29.07;;;17.20;;
15905;SDS011;8051;50.820;4.884;2023-05-16T01:28:47;23.33;;;17.53;;
15905;SDS011;8051;50.820;4.884;2023-05-16T01:31:15;19.57;;;17.23;;
15905;SDS011;8051;50.820;4.884;2023-05-16T01:33:43;22.60;;;17.03;;
15905;SDS011;8051;50.820;4.884;2023-05-16T01:36:13;24.17;;;17.77;;
15905;SDS011;8051;50.820;4.884;2023-05-16T01:38:53;23.20;;;16.00;;
15905;SDS011;8051;50.820;4.884;2023-05-16T01:41:32;27.53;;;17.23;;
15905;SDS011;8051;50.820;4.884;2023-05-16T01:44:07;18.27;;;16.50;;
15905;SDS011;8051;50.820;4.884;2023-05-16T01:46:42;33.20;;;19.70;;
15905;SDS011;8051;50.820;4.884;2023-05-16T01:49:14;19.67;;;17.70;;
15905;SDS011;8051;50.820;4.884;2023-05-16T01:51:49;30.70;;;17.40;;
15905;SDS011;8051;50.820;4.884;2023-05-16T01:54:19;24.93;;;16.93;;
15905;SDS011;8051;50.820;4.884;2023-05-16T01:56:52;28.23;;;17.83;;
15905;SDS011;8051;50.820;4.884;2023-05-16T01:59:21;24.03;;;17.60;;
15905;SDS011;8051;50.820;4.884;2023-05-16T02:01:52;27.53;;;18.27;;
15905;SDS011;8051;50.820;4.884;2023-05-16T02:04:19;24.13;;;16.57;;
15905;SDS011;8051;50.820;4.884;2023-05-16T02:06:48;23.10;;;17.20;;
15905;SDS011;8051;50.820;4.884;2023-05-16T02:09:16;27.23;;;17.37;;
15905;SDS011;8051;50.820;4.884;2023-05-16T02:11:44;21.57;;;16.30;;
15905;SDS011;8051;50.820;4.884;2023-05-16T02:14:13;18.10;;;16.20;;
15905;SDS011;8051;50.820;4.884;2023-05-16T02:16:41;18.10;;;15.90;;
15905;SDS011;8051;50.820;4.884;2023-05-16T02:19:08;20.47;;;15.47;;
15905;SDS011;8051;50.820;4.884;2023-05-16T02:21:35;27.23;;;17.33;;
15905;SDS011;8051;50.820;4.884;2023-05-16T02:24:03;25.87;;;16.47;;
15905;SDS011;8051;50.820;4.884;2023-05-16T02:26:31;28.53;;;16.40;;
15905;SDS011;8051;50.820;4.884;2023-05-16T02:28:59;25.93;;;16.50;;
15905;SDS011;8051;50.820;4.884;2023-05-16T02:31:28;17.50;;;15.33;;
15905;SDS011;8051;50.820;4.884;2023-05-16T02:33:56;21.43;;;15.80;;
15905;SDS011;8051;50.820;4.884;2023-05-16T02:36:25;24.93;;;16.57;;
15905;SDS011;8051;50.820;4.884;2023-05-16T02:38:53;19.07;;;15.37;;
15905;SDS011;8051;50.820;4.884;2023-05-16T02:41:21;18.07;;;15.77;;
15905;SDS011;8051;50.820;4.884;2023-05-16T02:43:49;20.87;;;16.73;;
15905;SDS011;8051;50.820;4.884;2023-05-16T02:46:20;16.20;;;13.00;;
15905;SDS011;8051;50.820;4.884;2023-05-16T02:48:50;23.93;;;16.03;;
15905;SDS011;8051;50.820;4.884;2023-05-16T02:51:18;23.53;;;15.47;;
15905;SDS011;8051;50.820;4.884;2023-05-16T02:53:46;20.97;;;15.17;;
15905;SDS011;8051;50.820;4.884;2023-05-16T02:56:14;30.37;;;16.07;;
15905;SDS011;8051;50.820;4.884;2023-05-16T02:58:42;22.90;;;15.30;;
15905;SDS011;8051;50.820;4.884;2023-05-16T03:01:10;22.67;;;15.53;;
15905;SDS011;8051;50.820;4.884;2023-05-16T03:03:37;25.00;;;16.23;;
15905;SDS011;8051;50.820;4.884;2023-05-16T03:06:06;24.37;;;14.97;;
15905;SDS011;8051;50.820;4.884;2023-05-16T03:08:34;26.87;;;15.50;;
15905;SDS011;8051;50.820;4.884;2023-05-16T03:11:01;21.07;;;16.10;;
15905;SDS011;8051;50.820;4.884;2023-05-16T03:13:29;21.83;;;15.10;;
15905;SDS011;8051;50.820;4.884;2023-05-16T03:15:57;24.30;;;15.23;;
15905;SDS011;8051;50.820;4.884;2023-05-16T03:18:24;23.23;;;15.47;;
15905;SDS011;8051;50.820;4.884;2023-05-16T03:20:52;19.50;;;15.63;;
15905;SDS011;8051;50.820;4.884;2023-05-16T03:23:21;20.27;;;15.57;;
15905;SDS011;8051;50.820;4.884;2023-05-16T03:25:49;28.57;;;16.50;;
15905;SDS011;8051;50.820;4.884;2023-05-16T03:28:17;17.60;;;15.63;;
15905;SDS011;8051;50.820;4.884;2023-05-16T03:30:44;27.90;;;15.20;;
15905;SDS011;8051;50.820;4.884;2023-05-16T03:33:12;23.37;;;15.20;;
15905;SDS011;8051;50.820;4.884;2023-05-16T03:35:39;29.20;;;15.83;;
15905;SDS011;8051;50.820;4.884;2023-05-16T03:38:07;24.77;;;14.53;;
15905;SDS011;8051;50.820;4.884;2023-05-16T03:40:37;28.23;;;15.83;;
15905;SDS011;8051;50.820;4.884;2023-05-16T03:43:04;17.93;;;15.77;;
15905;SDS011;8051;50.820;4.884;2023-05-16T03:45:32;24.20;;;14.63;;
15905;SDS011;8051;50.820;4.884;2023-05-16T03:47:59;23.53;;;15.37;;
15905;SDS011;8051;50.820;4.884;2023-05-16T03:50:27;23.83;;;15.77;;
15905;SDS011;8051;50.820;4.884;2023-05-16T03:52:54;23.17;;;15.33;;
15905;SDS011;8051;50.820;4.884;2023-05-16T03:55:22;23.23;;;16.37;;
15905;SDS011;8051;50.820;4.884;2023-05-16T03:57:50;21.70;;;14.83;;
15905;SDS011;8051;50.820;4.884;2023-05-16T04:00:18;18.60;;;13.87;;
15905;SDS011;8051;50.820;4.884;2023-05-16T04:02:46;24.63;;;15.43;;
15905;SDS011;8051;50.820;4.884;2023-05-16T04:05:13;21.57;;;16.07;;
15905;SDS011;8051;50.820;4.884;2023-05-16T04:07:41;17.07;;;14.37;;
15905;SDS011;8051;50.820;4.884;2023-05-16T04:10:08;16.23;;;14.50;;
15905;SDS011;8051;50.820;4.884;2023-05-16T04:12:36;17.77;;;14.60;;
15905;SDS011;8051;50.820;4.884;2023-05-16T04:15:06;17.80;;;14.30;;
15905;SDS011;8051;50.820;4.884;2023-05-16T04:17:34;22.20;;;14.57;;
15905;SDS011;8051;50.820;4.884;2023-05-16T04:20:01;17.07;;;13.80;;
15905;SDS011;8051;50.820;4.884;2023-05-16T04:22:31;20.17;;;12.93;;
15905;SDS011;8051;50.820;4.884;2023-05-16T04:24:58;14.63;;;12.77;;
15905;SDS011;8051;50.820;4.884;2023-05-16T04:27:26;25.73;;;12.80;;
15905;SDS011;8051;50.820;4.884;2023-05-16T04:29:54;20.63;;;13.30;;
15905;SDS011;8051;50.820;4.884;2023-05-16T04:32:24;16.30;;;12.83;;
15905;SDS011;8051;50.820;4.884;2023-05-16T04:34:53;17.07;;;15.27;;
15905;SDS011;8051;50.820;4.884;2023-05-16T04:37:20;19.17;;;16.00;;
15905;SDS011;8051;50.820;4.884;2023-05-16T04:39:48;20.63;;;18.20;;
15905;SDS011;8051;50.820;4.884;2023-05-16T04:42:15;19.93;;;17.97;;
15905;SDS011;8051;50.820;4.884;2023-05-16T04:44:47;21.07;;;18.50;;
15905;SDS011;8051;50.820;4.884;2023-05-16T04:47:14;22.40;;;20.00;;
15905;SDS011;8051;50.820;4.884;2023-05-16T04:49:43;21.03;;;19.13;;
15905;SDS011;8051;50.820;4.884;2023-05-16T04:52:10;21.63;;;19.50;;
15905;SDS011;8051;50.820;4.884;2023-05-16T04:54:37;21.77;;;19.90;;
15905;SDS011;8051;50.820;4.884;2023-05-16T04:57:05;22.90;;;20.63;;
15905;SDS011;8051;50.820;4.884;2023-05-16T04:59:32;23.40;;;18.83;;
15905;SDS011;8051;50.820;4.884;2023-05-16T05:02:00;21.47;;;19.53;;
15905;SDS011;8051;50.820;4.884;2023-05-16T05:04:28;19.93;;;18.27;;
15905;SDS011;8051;50.820;4.884;2023-05-16T05:06:57;19.63;;;17.93;;
15905;SDS011;8051;50.820;4.884;2023-05-16T05:09:25;20.77;;;18.67;;
15905;SDS011;8051;50.820;4.884;2023-05-16T05:11:52;20.67;;;18.77;;
15905;SDS011;8051;50.820;4.884;2023-05-16T05:14:20;20.13;;;18.33;;
15905;SDS011;8051;50.820;4.884;2023-05-16T05:16:48;18.43;;;16.70;;
15905;SDS011;8051;50.820;4.884;2023-05-16T05:19:15;22.07;;;19.73;;
15905;SDS011;8051;50.820;4.884;2023-05-16T05:21:43;22.40;;;18.90;;
15905;SDS011;8051;50.820;4.884;2023-05-16T05:24:12;20.10;;;18.23;;
15905;SDS011;8051;50.820;4.884;2023-05-16T05:26:39;19.77;;;17.83;;
15905;SDS011;8051;50.820;4.884;2023-05-16T05:29:07;23.80;;;17.67;;
15905;SDS011;8051;50.820;4.884;2023-05-16T05:31:34;20.73;;;18.83;;
15905;SDS011;8051;50.820;4.884;2023-05-16T05:34:02;20.23;;;18.30;;
15905;SDS011;8051;50.820;4.884;2023-05-16T05:36:29;17.83;;;16.33;;
15905;SDS011;8051;50.820;4.884;2023-05-16T05:38:57;20.40;;;16.53;;
15905;SDS011;8051;50.820;4.884;2023-05-16T05:41:25;20.27;;;17.10;;
15905;SDS011;8051;50.820;4.884;2023-05-16T05:43:52;18.27;;;16.40;;
15905;SDS011;8051;50.820;4.884;2023-05-16T05:46:20;18.03;;;16.33;;
15905;SDS011;8051;50.820;4.884;2023-05-16T05:48:47;18.80;;;14.20;;
15905;SDS011;8051;50.820;4.884;2023-05-16T05:51:15;17.00;;;15.17;;
15905;SDS011;8051;50.820;4.884;2023-05-16T05:53:42;21.20;;;16.17;;
15905;SDS011;8051;50.820;4.884;2023-05-16T05:56:10;18.17;;;16.57;;
15905;SDS011;8051;50.820;4.884;2023-05-16T05:58:39;21.33;;;15.63;;
15905;SDS011;8051;50.820;4.884;2023-05-16T06:01:07;18.17;;;16.17;;
15905;SDS011;8051;50.820;4.884;2023-05-16T06:03:34;17.27;;;15.73;;
15905;SDS011;8051;50.820;4.884;2023-05-16T06:06:02;16.10;;;14.67;;
15905;SDS011;8051;50.820;4.884;2023-05-16T06:08:30;18.77;;;17.10;;
15905;SDS011;8051;50.820;4.884;2023-05-16T06:10:58;16.60;;;14.93;;
15905;SDS011;8051;50.820;4.884;2023-05-16T06:13:26;19.73;;;18.23;;
15905;SDS011;8051;50.820;4.884;2023-05-16T06:15:55;18.97;;;17.40;;
15905;SDS011;8051;50.820;4.884;2023-05-16T06:18:22;24.67;;;19.10;;
15905;SDS011;8051;50.820;4.884;2023-05-16T06:20:51;20.77;;;18.60;;
15905;SDS011;8051;50.820;4.884;2023-05-16T06:23:18;19.73;;;18.03;;
15905;SDS011;8051;50.820;4.884;2023-05-16T06:25:46;20.30;;;18.60;;
15905;SDS011;8051;50.820;4.884;2023-05-16T06:28:13;21.63;;;19.60;;
15905;SDS011;8051;50.820;4.884;2023-05-16T06:30:41;21.60;;;19.87;;
15905;SDS011;8051;50.820;4.884;2023-05-16T06:33:09;19.90;;;18.07;;
15905;SDS011;8051;50.820;4.884;2023-05-16T06:35:37;20.17;;;18.37;;
15905;SDS011;8051;50.820;4.884;2023-05-16T06:38:05;22.57;;;20.77;;
15905;SDS011;8051;50.820;4.884;2023-05-16T06:40:32;21.70;;;19.40;;
15905;SDS011;8051;50.820;4.884;2023-05-16T06:43:00;18.17;;;16.80;;
15905;SDS011;8051;50.820;4.884;2023-05-16T06:45:27;21.30;;;19.57;;
15905;SDS011;8051;50.820;4.884;2023-05-16T06:47:55;18.27;;;16.60;;
15905;SDS011;8051;50.820;4.884;2023-05-16T06:50:23;19.37;;;17.23;;
15905;SDS011;8051;50.820;4.884;2023-05-16T06:52:51;18.60;;;17.03;;
15905;SDS011;8051;50.820;4.884;2023-05-16T06:55:18;21.97;;;15.63;;
15905;SDS011;8051;50.820;4.884;2023-05-16T06:57:46;18.07;;;16.20;;
15905;SDS011;8051;50.820;4.884;2023-05-16T07:00:13;21.40;;;17.13;;
15905;SDS011;8051;50.820;4.884;2023-05-16T07:02:41;19.83;;;18.30;;
15905;SDS011;8051;50.820;4.884;2023-05-16T07:05:08;22.50;;;17.73;;
15905;SDS011;8051;50.820;4.884;2023-05-16T07:07:37;17.13;;;15.40;;
15905;SDS011;8051;50.820;4.884;2023-05-16T07:10:05;22.03;;;18.70;;
15905;SDS011;8051;50.820;4.884;2023-05-16T07:12:34;17.03;;;15.73;;
15905;SDS011;8051;50.820;4.884;2023-05-16T07:15:02;18.73;;;17.10;;
15905;SDS011;8051;50.820;4.884;2023-05-16T07:17:30;17.20;;;15.80;;
15905;SDS011;8051;50.820;4.884;2023-05-16T07:19:58;16.63;;;15.20;;
15905;SDS011;8051;50.820;4.884;2023-05-16T07:22:26;18.57;;;17.07;;
15905;SDS011;8051;50.820;4.884;2023-05-16T07:24:54;15.20;;;13.80;;
15905;SDS011;8051;50.820;4.884;2023-05-16T07:27:25;16.17;;;15.17;;
15905;SDS011;8051;50.820;4.884;2023-05-16T07:29:52;17.27;;;15.87;;
15905;SDS011;8051;50.820;4.884;2023-05-16T07:32:20;16.00;;;14.57;;
15905;SDS011;8051;50.820;4.884;2023-05-16T07:34:47;18.37;;;16.50;;
15905;SDS011;8051;50.820;4.884;2023-05-16T07:37:15;17.27;;;15.73;;
15905;SDS011;8051;50.820;4.884;2023-05-16T07:39:43;16.87;;;15.57;;
15905;SDS011;8051;50.820;4.884;2023-05-16T07:42:11;15.23;;;13.70;;
15905;SDS011;8051;50.820;4.884;2023-05-16T07:44:39;15.40;;;14.07;;
15905;SDS011;8051;50.820;4.884;2023-05-16T07:47:07;15.50;;;14.37;;
15905;SDS011;8051;50.820;4.884;2023-05-16T07:49:34;17.10;;;15.67;;
15905;SDS011;8051;50.820;4.884;2023-05-16T07:52:02;17.53;;;16.27;;
15905;SDS011;8051;50.820;4.884;2023-05-16T07:54:30;15.87;;;14.70;;
15905;SDS011;8051;50.820;4.884;2023-05-16T07:56:58;15.53;;;14.10;;
15905;SDS011;8051;50.820;4.884;2023-05-16T07:59:27;16.43;;;15.07;;
15905;SDS011;8051;50.820;4.884;2023-05-16T08:01:54;19.10;;;17.80;;
15905;SDS011;8051;50.820;4.884;2023-05-16T08:04:22;16.50;;;15.17;;
15905;SDS011;8051;50.820;4.884;2023-05-16T08:06:50;17.17;;;15.80;;
15905;SDS011;8051;50.820;4.884;2023-05-16T08:09:17;17.90;;;16.10;;
15905;SDS011;8051;50.820;4.884;2023-05-16T08:11:45;15.50;;;13.80;;
15905;SDS011;8051;50.820;4.884;2023-05-16T08:14:12;14.93;;;13.90;;
15905;SDS011;8051;50.820;4.884;2023-05-16T08:16:41;15.47;;;14.23;;
15905;SDS011;8051;50.820;4.884;2023-05-16T08:19:09;17.20;;;15.50;;
15905;SDS011;8051;50.820;4.884;2023-05-16T08:21:36;16.27;;;14.77;;
15905;SDS011;8051;50.820;4.884;2023-05-16T08:24:05;15.67;;;14.53;;
15905;SDS011;8051;50.820;4.884;2023-05-16T08:26:35;16.37;;;15.00;;
15905;SDS011;8051;50.820;4.884;2023-05-16T08:29:02;14.03;;;13.13;;
15905;SDS011;8051;50.820;4.884;2023-05-16T08:31:30;15.57;;;14.13;;
15905;SDS011;8051;50.820;4.884;2023-05-16T08:33:59;15.27;;;14.03;;
15905;SDS011;8051;50.820;4.884;2023-05-16T08:36:27;13.13;;;11.93;;
15905;SDS011;8051;50.820;4.884;2023-05-16T08:38:55;13.97;;;12.83;;
15905;SDS011;8051;50.820;4.884;2023-05-16T08:41:23;14.97;;;13.73;;
15905;SDS011;8051;50.820;4.884;2023-05-16T08:43:50;19.43;;;17.83;;
15905;SDS011;8051;50.820;4.884;2023-05-16T08:46:20;19.60;;;17.67;;
15905;SDS011;8051;50.820;4.884;2023-05-16T08:48:50;16.27;;;15.17;;
15905;SDS011;8051;50.820;4.884;2023-05-16T08:51:20;15.50;;;14.30;;
15905;SDS011;8051;50.820;4.884;2023-05-16T08:53:51;15.87;;;14.40;;
15905;SDS011;8051;50.820;4.884;2023-05-16T08:56:23;14.07;;;12.97;;
15905;SDS011;8051;50.820;4.884;2023-05-16T08:58:51;15.17;;;13.70;;
15905;SDS011;8051;50.820;4.884;2023-05-16T09:01:19;15.27;;;13.77;;
15905;SDS011;8051;50.820;4.884;2023-05-16T09:03:47;16.17;;;14.67;;
15905;SDS011;8051;50.820;4.884;2023-05-16T09:06:15;15.93;;;14.73;;
15905;SDS011;8051;50.820;4.884;2023-05-16T09:08:44;14.37;;;12.93;;
15905;SDS011;8051;50.820;4.884;2023-05-16T09:11:12;14.57;;;13.53;;
15905;SDS011;8051;50.820;4.884;2023-05-16T09:13:39;14.07;;;13.13;;
15905;SDS011;8051;50.820;4.884;2023-05-16T09:16:07;15.57;;;14.60;;
15905;SDS011;8051;50.820;4.884;2023-05-16T09:18:36;15.93;;;14.60;;
15905;SDS011;8051;50.820;4.884;2023-05-16T09:21:03;15.10;;;13.90;;
15905;SDS011;8051;50.820;4.884;2023-05-16T09:23:31;14.50;;;13.27;;
15905;SDS011;8051;50.820;4.884;2023-05-16T09:26:00;14.63;;;13.40;;
15905;SDS011;8051;50.820;4.884;2023-05-16T09:28:29;15.30;;;14.00;;
15905;SDS011;8051;50.820;4.884;2023-05-16T09:30:56;14.83;;;13.40;;
15905;SDS011;8051;50.820;4.884;2023-05-16T09:33:26;13.03;;;12.10;;
15905;SDS011;8051;50.820;4.884;2023-05-16T09:35:54;14.37;;;13.17;;
15905;SDS011;8051;50.820;4.884;2023-05-16T09:38:23;14.60;;;13.43;;
15905;SDS011;8051;50.820;4.884;2023-05-16T09:40:52;16.60;;;15.57;;
15905;SDS011;8051;50.820;4.884;2023-05-16T09:43:22;16.47;;;15.27;;
15905;SDS011;8051;50.820;4.884;2023-05-16T09:45:51;15.47;;;13.87;;
15905;SDS011;8051;50.820;4.884;2023-05-16T09:48:19;14.70;;;13.53;;
15905;SDS011;8051;50.820;4.884;2023-05-16T09:50:48;15.73;;;14.27;;
15905;SDS011;8051;50.820;4.884;2023-05-16T09:53:23;13.87;;;12.43;;
15905;SDS011;8051;50.820;4.884;2023-05-16T09:55:58;12.90;;;12.07;;
15905;SDS011;8051;50.820;4.884;2023-05-16T09:58:29;13.00;;;12.00;;
15905;SDS011;8051;50.820;4.884;2023-05-16T10:00:57;12.57;;;11.50;;
15905;SDS011;8051;50.820;4.884;2023-05-16T10:03:25;12.20;;;11.40;;
15905;SDS011;8051;50.820;4.884;2023-05-16T10:05:52;11.80;;;11.00;;
15905;SDS011;8051;50.820;4.884;2023-05-16T10:08:22;11.73;;;10.60;;
15905;SDS011;8051;50.820;4.884;2023-05-16T10:10:51;9.93;;;8.90;;
15905;SDS011;8051;50.820;4.884;2023-05-16T10:13:20;10.43;;;9.40;;
15905;SDS011;8051;50.820;4.884;2023-05-16T10:15:50;10.53;;;9.80;;
15905;SDS011;8051;50.820;4.884;2023-05-16T10:18:21;10.10;;;9.13;;
15905;SDS011;8051;50.820;4.884;2023-05-16T10:20:54;12.07;;;10.67;;
15905;SDS011;8051;50.820;4.884;2023-05-16T10:23:24;12.87;;;11.77;;
15905;SDS011;8051;50.820;4.884;2023-05-16T10:25:52;11.33;;;10.40;;
15905;SDS011;8051;50.820;4.884;2023-05-16T10:28:20;11.80;;;10.90;;
15905;SDS011;8051;50.820;4.884;2023-05-16T10:30:50;11.53;;;10.73;;
15905;SDS011;8051;50.820;4.884;2023-05-16T10:33:21;11.30;;;10.60;;
15905;SDS011;8051;50.820;4.884;2023-05-16T10:35:48;10.40;;;9.50;;
15905;SDS011;8051;50.820;4.884;2023-05-16T10:38:16;10.97;;;9.87;;
15905;SDS011;8051;50.820;4.884;2023-05-16T10:40:44;12.43;;;11.53;;
15905;SDS011;8051;50.820;4.884;2023-05-16T10:43:21;11.90;;;10.80;;
15905;SDS011;8051;50.820;4.884;2023-05-16T10:45:55;11.07;;;10.07;;
15905;SDS011;8051;50.820;4.884;2023-05-16T10:48:30;12.00;;;10.83;;
15905;SDS011;8051;50.820;4.884;2023-05-16T10:50:58;12.30;;;11.40;;
15905;SDS011;8051;50.820;4.884;2023-05-16T10:53:30;11.60;;;10.70;;
15905;SDS011;8051;50.820;4.884;2023-05-16T10:56:08;14.23;;;12.80;;
15905;SDS011;8051;50.820;4.884;2023-05-16T10:58:40;11.50;;;10.80;;
15905;SDS011;8051;50.820;4.884;2023-05-16T11:01:16;12.40;;;11.40;;
15905;SDS011;8051;50.820;4.884;2023-05-16T11:04:02;9.73;;;8.93;;
15905;SDS011;8051;50.820;4.884;2023-05-16T11:06:35;10.37;;;9.33;;
15905;SDS011;8051;50.820;4.884;2023-05-16T11:09:22;11.60;;;10.70;;
15905;SDS011;8051;50.820;4.884;2023-05-16T11:11:55;12.13;;;11.13;;
15905;SDS011;8051;50.820;4.884;2023-05-16T11:14:25;11.37;;;10.67;;
15905;SDS011;8051;50.820;4.884;2023-05-16T11:17:01;11.17;;;10.37;;
15905;SDS011;8051;50.820;4.884;2023-05-16T11:19:33;9.40;;;8.80;;
15905;SDS011;8051;50.820;4.884;2023-05-16T11:23:21;11.40;;;9.50;;
15905;SDS011;8051;50.820;4.884;2023-05-16T11:25:53;11.20;;;10.00;;
15905;SDS011;8051;50.820;4.884;2023-05-16T11:28:23;10.90;;;10.20;;
15905;SDS011;8051;50.820;4.884;2023-05-16T11:30:52;11.53;;;10.53;;
15905;SDS011;8051;50.820;4.884;2023-05-16T11:33:21;11.47;;;10.67;;
15905;SDS011;8051;50.820;4.884;2023-05-16T11:35:59;10.63;;;9.83;;
15905;SDS011;8051;50.820;4.884;2023-05-16T11:38:30;11.83;;;10.83;;
15905;SDS011;8051;50.820;4.884;2023-05-16T11:41:03;10.40;;;9.70;;
15905;SDS011;8051;50.820;4.884;2023-05-16T11:43:36;11.33;;;10.63;;
15905;SDS011;8051;50.820;4.884;2023-05-16T11:46:04;11.37;;;10.70;;
15905;SDS011;8051;50.820;4.884;2023-05-16T11:48:32;9.87;;;8.97;;
15905;SDS011;8051;50.820;4.884;2023-05-16T11:51:00;9.40;;;8.80;;
15905;SDS011;8051;50.820;4.884;2023-05-16T11:53:29;9.90;;;9.13;;
15905;SDS011;8051;50.820;4.884;2023-05-16T11:55:58;9.20;;;8.70;;
15905;SDS011;8051;50.820;4.884;2023-05-16T11:58:26;9.93;;;9.07;;
15905;SDS011;8051;50.820;4.884;2023-05-16T12:00:54;12.63;;;11.93;;
15905;SDS011;8051;50.820;4.884;2023-05-16T12:03:21;12.10;;;11.30;;
15905;SDS011;8051;50.820;4.884;2023-05-16T12:05:49;12.00;;;11.10;;
15905;SDS011;8051;50.820;4.884;2023-05-16T12:08:18;12.90;;;11.87;;
15905;SDS011;8051;50.820;4.884;2023-05-16T12:10:50;13.43;;;12.60;;
15905;SDS011;8051;50.820;4.884;2023-05-16T12:13:18;13.00;;;11.93;;
15905;SDS011;8051;50.820;4.884;2023-05-16T12:15:46;12.73;;;11.70;;
15905;SDS011;8051;50.820;4.884;2023-05-16T12:18:15;13.17;;;12.20;;
15905;SDS011;8051;50.820;4.884;2023-05-16T12:20:42;12.53;;;11.43;;
15905;SDS011;8051;50.820;4.884;2023-05-16T12:23:11;11.13;;;10.27;;
15905;SDS011;8051;50.820;4.884;2023-05-16T12:25:39;13.50;;;12.50;;
15905;SDS011;8051;50.820;4.884;2023-05-16T12:28:13;11.53;;;10.80;;
15905;SDS011;8051;50.820;4.884;2023-05-16T12:30:41;12.13;;;11.23;;
15905;SDS011;8051;50.820;4.884;2023-05-16T12:33:09;14.93;;;14.00;;
15905;SDS011;8051;50.820;4.884;2023-05-16T12:35:40;13.23;;;12.33;;
15905;SDS011;8051;50.820;4.884;2023-05-16T12:38:09;12.93;;;12.13;;
15905;SDS011;8051;50.820;4.884;2023-05-16T12:40:37;14.47;;;13.30;;
15905;SDS011;8051;50.820;4.884;2023-05-16T12:43:13;13.53;;;12.60;;
15905;SDS011;8051;50.820;4.884;2023-05-16T12:45:40;10.77;;;10.07;;
15905;SDS011;8051;50.820;4.884;2023-05-16T12:48:11;10.47;;;9.80;;
15905;SDS011;8051;50.820;4.884;2023-05-16T12:50:39;10.70;;;10.07;;
15905;SDS011;8051;50.820;4.884;2023-05-16T12:53:09;11.30;;;10.50;;
15905;SDS011;8051;50.820;4.884;2023-05-16T12:55:38;11.60;;;10.87;;
15905;SDS011;8051;50.820;4.884;2023-05-16T12:58:06;11.90;;;11.20;;
15905;SDS011;8051;50.820;4.884;2023-05-16T13:00:35;11.43;;;10.70;;
15905;SDS011;8051;50.820;4.884;2023-05-16T13:03:03;12.30;;;11.13;;
15905;SDS011;8051;50.820;4.884;2023-05-16T13:05:31;11.67;;;10.90;;
15905;SDS011;8051;50.820;4.884;2023-05-16T13:07:59;12.23;;;11.17;;
15905;SDS011;8051;50.820;4.884;2023-05-16T13:10:26;11.33;;;10.17;;
15905;SDS011;8051;50.820;4.884;2023-05-16T13:12:54;12.10;;;11.07;;
15905;SDS011;8051;50.820;4.884;2023-05-16T13:15:24;12.30;;;11.53;;
15905;SDS011;8051;50.820;4.884;2023-05-16T13:17:53;11.23;;;10.40;;
15905;SDS011;8051;50.820;4.884;2023-05-16T13:20:20;12.97;;;12.00;;
15905;SDS011;8051;50.820;4.884;2023-05-16T13:22:47;13.17;;;12.17;;
15905;SDS011;8051;50.820;4.884;2023-05-16T13:25:15;13.17;;;11.30;;
15905;SDS011;8051;50.820;4.884;2023-05-16T13:27:42;11.43;;;10.73;;
15905;SDS011;8051;50.820;4.884;2023-05-16T13:30:10;11.73;;;10.83;;
15905;SDS011;8051;50.820;4.884;2023-05-16T13:32:38;11.20;;;10.10;;
15905;SDS011;8051;50.820;4.884;2023-05-16T13:35:08;10.40;;;9.60;;
15905;SDS011;8051;50.820;4.884;2023-05-16T13:37:35;11.63;;;10.70;;
15905;SDS011;8051;50.820;4.884;2023-05-16T13:40:03;10.73;;;9.93;;
15905;SDS011;8051;50.820;4.884;2023-05-16T13:42:34;12.93;;;12.13;;
15905;SDS011;8051;50.820;4.884;2023-05-16T13:45:03;13.43;;;12.57;;
15905;SDS011;8051;50.820;4.884;2023-05-16T13:47:31;14.10;;;13.07;;
15905;SDS011;8051;50.820;4.884;2023-05-16T13:49:58;12.93;;;12.17;;
15905;SDS011;8051;50.820;4.884;2023-05-16T13:52:31;13.50;;;12.70;;
15905;SDS011;8051;50.820;4.884;2023-05-16T13:54:59;14.57;;;13.60;;
15905;SDS011;8051;50.820;4.884;2023-05-16T13:57:26;14.10;;;12.93;;
15905;SDS011;8051;50.820;4.884;2023-05-16T13:59:54;15.53;;;14.60;;
15905;SDS011;8051;50.820;4.884;2023-05-16T14:02:21;13.57;;;12.67;;
15905;SDS011;8051;50.820;4.884;2023-05-16T14:04:50;13.50;;;12.33;;
15905;SDS011;8051;50.820;4.884;2023-05-16T14:07:17;12.23;;;11.30;;
15905;SDS011;8051;50.820;4.884;2023-05-16T14:09:46;14.63;;;13.53;;
15905;SDS011;8051;50.820;4.884;2023-05-16T14:12:14;11.63;;;10.53;;
15905;SDS011;8051;50.820;4.884;2023-05-16T14:14:41;13.70;;;12.77;;
15905;SDS011;8051;50.820;4.884;2023-05-16T14:17:09;13.43;;;12.33;;
15905;SDS011;8051;50.820;4.884;2023-05-16T14:19:37;12.33;;;11.40;;
15905;SDS011;8051;50.820;4.884;2023-05-16T14:22:04;12.20;;;11.40;;
15905;SDS011;8051;50.820;4.884;2023-05-16T14:24:32;13.00;;;12.20;;
15905;SDS011;8051;50.820;4.884;2023-05-16T14:27:01;12.23;;;11.63;;
15905;SDS011;8051;50.820;4.884;2023-05-16T14:29:29;13.30;;;12.23;;
15905;SDS011;8051;50.820;4.884;2023-05-16T14:31:56;12.83;;;11.83;;
15905;SDS011;8051;50.820;4.884;2023-05-16T14:34:23;13.80;;;12.90;;
15905;SDS011;8051;50.820;4.884;2023-05-16T14:36:51;12.03;;;11.27;;
15905;SDS011;8051;50.820;4.884;2023-05-16T14:39:18;12.77;;;12.07;;
15905;SDS011;8051;50.820;4.884;2023-05-16T14:41:46;16.27;;;15.20;;
15905;SDS011;8051;50.820;4.884;2023-05-16T14:44:15;13.27;;;12.03;;
15905;SDS011;8051;50.820;4.884;2023-05-16T14:46:43;12.63;;;11.73;;